sensor_id;sensor_type;location;lat;lon;timestamp;temperature;humidity
34833;DHT22;55941;50.800;4.342;2022-07-19T00:00:27;25.10;52.30
34833;DHT22;55941;50.800;4.342;2022-07-19T00:02:56;25.00;52.30
34833;DHT22;55941;50.800;4.342;2022-07-19T00:05:25;25.10;52.30
34833;DHT22;55941;50.800;4.342;2022-07-19T00:07:51;25.00;52.40
34833;DHT22;55941;50.800;4.342;2022-07-19T00:10:20;25.10;52.00
34833;DHT22;55941;50.800;4.342;2022-07-19T00:12:49;25.00;52.10
34833;DHT22;55941;50.800;4.342;2022-07-19T00:15:31;25.00;52.20
34833;DHT22;55941;50.800;4.342;2022-07-19T00:17:57;24.90;52.50
34833;DHT22;55941;50.800;4.342;2022-07-19T00:20:24;24.90;52.40
34833;DHT22;55941;50.800;4.342;2022-07-19T00:22:51;24.80;51.90
34833;DHT22;55941;50.800;4.342;2022-07-19T00:25:19;24.80;52.20
34833;DHT22;55941;50.800;4.342;2022-07-19T00:27:47;24.80;52.20
34833;DHT22;55941;50.800;4.342;2022-07-19T00:30:16;24.80;52.90
34833;DHT22;55941;50.800;4.342;2022-07-19T00:32:44;24.70;52.70
34833;DHT22;55941;50.800;4.342;2022-07-19T00:35:11;24.60;52.30
34833;DHT22;55941;50.800;4.342;2022-07-19T00:37:37;24.60;51.70
34833;DHT22;55941;50.800;4.342;2022-07-19T00:40:23;24.60;52.10
34833;DHT22;55941;50.800;4.342;2022-07-19T00:42:52;24.60;51.80
34833;DHT22;55941;50.800;4.342;2022-07-19T00:45:20;24.50;51.80
34833;DHT22;55941;50.800;4.342;2022-07-19T00:48:00;24.50;50.80
34833;DHT22;55941;50.800;4.342;2022-07-19T00:50:29;24.50;50.80
34833;DHT22;55941;50.800;4.342;2022-07-19T00:53:05;24.50;51.00
34833;DHT22;55941;50.800;4.342;2022-07-19T00:55:34;24.50;52.00
34833;DHT22;55941;50.800;4.342;2022-07-19T00:58:11;24.50;52.90
34833;DHT22;55941;50.800;4.342;2022-07-19T01:00:40;24.40;52.90
34833;DHT22;55941;50.800;4.342;2022-07-19T01:03:07;24.40;52.90
34833;DHT22;55941;50.800;4.342;2022-07-19T01:08:39;24.20;52.60
34833;DHT22;55941;50.800;4.342;2022-07-19T01:11:34;24.30;52.50
34833;DHT22;55941;50.800;4.342;2022-07-19T01:14:03;24.20;52.90
34833;DHT22;55941;50.800;4.342;2022-07-19T01:16:30;24.20;53.40
34833;DHT22;55941;50.800;4.342;2022-07-19T01:18:58;24.10;53.20
34833;DHT22;55941;50.800;4.342;2022-07-19T01:21:25;24.10;53.20
34833;DHT22;55941;50.800;4.342;2022-07-19T01:23:54;24.10;51.80
34833;DHT22;55941;50.800;4.342;2022-07-19T01:26:20;24.00;52.20
34833;DHT22;55941;50.800;4.342;2022-07-19T01:28:47;24.00;53.30
34833;DHT22;55941;50.800;4.342;2022-07-19T01:31:13;24.00;53.80
34833;DHT22;55941;50.800;4.342;2022-07-19T01:33:40;24.00;53.30
34833;DHT22;55941;50.800;4.342;2022-07-19T01:36:07;24.10;53.20
34833;DHT22;55941;50.800;4.342;2022-07-19T01:38:33;24.10;53.50
34833;DHT22;55941;50.800;4.342;2022-07-19T01:40:59;24.10;53.50
34833;DHT22;55941;50.800;4.342;2022-07-19T01:43:25;24.10;54.10
34833;DHT22;55941;50.800;4.342;2022-07-19T01:45:52;24.00;54.40
34833;DHT22;55941;50.800;4.342;2022-07-19T01:48:20;23.80;54.70
34833;DHT22;55941;50.800;4.342;2022-07-19T01:50:47;23.90;55.00
34833;DHT22;55941;50.800;4.342;2022-07-19T01:53:13;23.90;55.70
34833;DHT22;55941;50.800;4.342;2022-07-19T01:55:39;23.80;54.90
34833;DHT22;55941;50.800;4.342;2022-07-19T01:58:16;23.70;54.30
34833;DHT22;55941;50.800;4.342;2022-07-19T02:00:42;23.70;53.50
34833;DHT22;55941;50.800;4.342;2022-07-19T02:03:08;23.70;53.40
34833;DHT22;55941;50.800;4.342;2022-07-19T02:05:37;23.70;54.00
34833;DHT22;55941;50.800;4.342;2022-07-19T02:08:04;23.70;54.60
34833;DHT22;55941;50.800;4.342;2022-07-19T02:10:30;23.50;54.80
34833;DHT22;55941;50.800;4.342;2022-07-19T02:12:56;23.60;54.70
34833;DHT22;55941;50.800;4.342;2022-07-19T02:15:23;23.50;53.70
34833;DHT22;55941;50.800;4.342;2022-07-19T02:17:49;23.40;53.80
34833;DHT22;55941;50.800;4.342;2022-07-19T02:20:14;23.30;53.80
34833;DHT22;55941;50.800;4.342;2022-07-19T02:22:41;23.40;53.40
34833;DHT22;55941;50.800;4.342;2022-07-19T02:25:13;23.40;53.10
34833;DHT22;55941;50.800;4.342;2022-07-19T02:27:40;23.40;53.30
34833;DHT22;55941;50.800;4.342;2022-07-19T02:30:26;23.40;52.80
34833;DHT22;55941;50.800;4.342;2022-07-19T02:32:55;23.30;52.80
34833;DHT22;55941;50.800;4.342;2022-07-19T02:35:24;23.40;53.70
34833;DHT22;55941;50.800;4.342;2022-07-19T02:37:51;23.30;54.50
34833;DHT22;55941;50.800;4.342;2022-07-19T02:40:19;23.30;55.60
34833;DHT22;55941;50.800;4.342;2022-07-19T02:42:47;23.20;56.20
34833;DHT22;55941;50.800;4.342;2022-07-19T02:45:13;23.10;55.90
34833;DHT22;55941;50.800;4.342;2022-07-19T02:47:43;23.10;55.90
34833;DHT22;55941;50.800;4.342;2022-07-19T02:50:09;23.10;55.20
34833;DHT22;55941;50.800;4.342;2022-07-19T02:52:34;23.10;54.80
34833;DHT22;55941;50.800;4.342;2022-07-19T02:55:04;23.10;54.60
34833;DHT22;55941;50.800;4.342;2022-07-19T02:57:33;23.10;54.60
34833;DHT22;55941;50.800;4.342;2022-07-19T02:59:59;23.10;54.50
34833;DHT22;55941;50.800;4.342;2022-07-19T03:02:27;23.10;55.30
34833;DHT22;55941;50.800;4.342;2022-07-19T03:04:53;23.00;56.00
34833;DHT22;55941;50.800;4.342;2022-07-19T03:07:19;23.00;56.90
34833;DHT22;55941;50.800;4.342;2022-07-19T03:09:48;23.00;57.60
34833;DHT22;55941;50.800;4.342;2022-07-19T03:12:14;22.90;58.80
34833;DHT22;55941;50.800;4.342;2022-07-19T03:14:45;22.90;58.70
34833;DHT22;55941;50.800;4.342;2022-07-19T03:17:14;22.90;59.10
34833;DHT22;55941;50.800;4.342;2022-07-19T03:19:43;22.90;59.20
34833;DHT22;55941;50.800;4.342;2022-07-19T03:22:08;22.80;59.30
34833;DHT22;55941;50.800;4.342;2022-07-19T03:24:37;22.80;59.20
34833;DHT22;55941;50.800;4.342;2022-07-19T03:27:06;22.70;59.00
34833;DHT22;55941;50.800;4.342;2022-07-19T03:29:34;22.70;59.10
34833;DHT22;55941;50.800;4.342;2022-07-19T03:32:03;22.70;59.30
34833;DHT22;55941;50.800;4.342;2022-07-19T03:34:29;22.70;58.90
34833;DHT22;55941;50.800;4.342;2022-07-19T03:37:01;22.60;59.20
34833;DHT22;55941;50.800;4.342;2022-07-19T03:39:26;22.70;59.70
34833;DHT22;55941;50.800;4.342;2022-07-19T03:41:55;22.70;58.90
34833;DHT22;55941;50.800;4.342;2022-07-19T03:44:27;22.60;59.30
34833;DHT22;55941;50.800;4.342;2022-07-19T03:49:24;22.50;59.60
34833;DHT22;55941;50.800;4.342;2022-07-19T03:51:53;22.50;59.80
34833;DHT22;55941;50.800;4.342;2022-07-19T03:54:21;22.50;59.60
34833;DHT22;55941;50.800;4.342;2022-07-19T03:56:47;22.50;59.60
34833;DHT22;55941;50.800;4.342;2022-07-19T03:59:14;22.50;59.50
34833;DHT22;55941;50.800;4.342;2022-07-19T04:01:39;22.50;59.90
34833;DHT22;55941;50.800;4.342;2022-07-19T04:04:06;22.50;60.10
34833;DHT22;55941;50.800;4.342;2022-07-19T04:06:32;22.60;60.70
34833;DHT22;55941;50.800;4.342;2022-07-19T04:08:58;22.50;61.30
34833;DHT22;55941;50.800;4.342;2022-07-19T04:11:23;22.50;61.20
34833;DHT22;55941;50.800;4.342;2022-07-19T04:13:50;22.50;61.40
34833;DHT22;55941;50.800;4.342;2022-07-19T04:16:15;22.50;61.40
34833;DHT22;55941;50.800;4.342;2022-07-19T04:18:41;22.50;61.50
34833;DHT22;55941;50.800;4.342;2022-07-19T04:21:07;22.50;61.20
34833;DHT22;55941;50.800;4.342;2022-07-19T04:23:33;22.50;60.80
34833;DHT22;55941;50.800;4.342;2022-07-19T04:25:59;22.50;60.20
34833;DHT22;55941;50.800;4.342;2022-07-19T04:28:25;22.50;60.60
34833;DHT22;55941;50.800;4.342;2022-07-19T04:30:51;22.60;61.20
34833;DHT22;55941;50.800;4.342;2022-07-19T04:33:18;22.60;61.60
34833;DHT22;55941;50.800;4.342;2022-07-19T04:35:45;22.50;61.80
34833;DHT22;55941;50.800;4.342;2022-07-19T04:38:13;22.60;62.40
34833;DHT22;55941;50.800;4.342;2022-07-19T04:40:38;22.60;61.90
34833;DHT22;55941;50.800;4.342;2022-07-19T04:43:05;22.70;62.20
34833;DHT22;55941;50.800;4.342;2022-07-19T04:45:31;22.80;61.70
34833;DHT22;55941;50.800;4.342;2022-07-19T04:47:57;22.90;61.80
34833;DHT22;55941;50.800;4.342;2022-07-19T04:50:23;23.00;60.60
34833;DHT22;55941;50.800;4.342;2022-07-19T04:52:50;23.10;60.00
34833;DHT22;55941;50.800;4.342;2022-07-19T04:55:16;23.20;60.10
34833;DHT22;55941;50.800;4.342;2022-07-19T04:57:42;23.30;59.70
34833;DHT22;55941;50.800;4.342;2022-07-19T05:00:09;23.40;59.40
34833;DHT22;55941;50.800;4.342;2022-07-19T05:02:36;23.40;59.30
34833;DHT22;55941;50.800;4.342;2022-07-19T05:05:03;23.50;59.40
34833;DHT22;55941;50.800;4.342;2022-07-19T05:07:29;23.50;59.30
34833;DHT22;55941;50.800;4.342;2022-07-19T05:10:05;23.50;59.50
34833;DHT22;55941;50.800;4.342;2022-07-19T05:12:31;23.50;59.70
34833;DHT22;55941;50.800;4.342;2022-07-19T05:14:56;23.60;59.90
34833;DHT22;55941;50.800;4.342;2022-07-19T05:17:24;23.70;60.30
34833;DHT22;55941;50.800;4.342;2022-07-19T05:19:51;23.80;59.90
34833;DHT22;55941;50.800;4.342;2022-07-19T05:22:16;23.80;60.00
34833;DHT22;55941;50.800;4.342;2022-07-19T05:24:42;23.80;59.80
34833;DHT22;55941;50.800;4.342;2022-07-19T05:27:08;23.90;59.60
34833;DHT22;55941;50.800;4.342;2022-07-19T05:29:34;24.00;59.60
34833;DHT22;55941;50.800;4.342;2022-07-19T05:32:02;24.00;59.60
34833;DHT22;55941;50.800;4.342;2022-07-19T05:34:28;24.10;60.00
34833;DHT22;55941;50.800;4.342;2022-07-19T05:36:54;24.20;59.50
34833;DHT22;55941;50.800;4.342;2022-07-19T05:39:20;24.30;59.30
34833;DHT22;55941;50.800;4.342;2022-07-19T05:41:45;24.30;59.10
34833;DHT22;55941;50.800;4.342;2022-07-19T05:44:13;24.40;58.40
34833;DHT22;55941;50.800;4.342;2022-07-19T05:46:39;24.70;58.20
34833;DHT22;55941;50.800;4.342;2022-07-19T05:49:07;24.80;57.30
34833;DHT22;55941;50.800;4.342;2022-07-19T05:51:37;24.90;55.80
34833;DHT22;55941;50.800;4.342;2022-07-19T05:54:03;25.00;55.10
34833;DHT22;55941;50.800;4.342;2022-07-19T05:56:29;25.10;55.80
34833;DHT22;55941;50.800;4.342;2022-07-19T05:58:55;25.20;55.40
34833;DHT22;55941;50.800;4.342;2022-07-19T06:01:21;25.30;54.50
34833;DHT22;55941;50.800;4.342;2022-07-19T06:03:52;25.30;54.80
34833;DHT22;55941;50.800;4.342;2022-07-19T06:06:19;25.40;55.00
34833;DHT22;55941;50.800;4.342;2022-07-19T06:08:47;25.40;54.90
34833;DHT22;55941;50.800;4.342;2022-07-19T06:11:14;25.40;54.30
34833;DHT22;55941;50.800;4.342;2022-07-19T06:13:40;25.50;53.60
34833;DHT22;55941;50.800;4.342;2022-07-19T06:16:06;25.60;53.70
34833;DHT22;55941;50.800;4.342;2022-07-19T06:18:32;25.70;53.10
34833;DHT22;55941;50.800;4.342;2022-07-19T06:21:08;25.80;52.70
34833;DHT22;55941;50.800;4.342;2022-07-19T06:23:34;26.00;52.00
34833;DHT22;55941;50.800;4.342;2022-07-19T06:26:00;26.00;51.90
34833;DHT22;55941;50.800;4.342;2022-07-19T06:28:26;26.10;51.80
34833;DHT22;55941;50.800;4.342;2022-07-19T06:30:52;26.20;52.00
34833;DHT22;55941;50.800;4.342;2022-07-19T06:33:18;26.30;50.20
34833;DHT22;55941;50.800;4.342;2022-07-19T06:35:43;26.50;50.00
34833;DHT22;55941;50.800;4.342;2022-07-19T06:38:12;26.50;49.30
34833;DHT22;55941;50.800;4.342;2022-07-19T06:40:38;26.60;49.50
34833;DHT22;55941;50.800;4.342;2022-07-19T06:43:03;26.80;49.30
34833;DHT22;55941;50.800;4.342;2022-07-19T06:45:29;26.90;48.90
34833;DHT22;55941;50.800;4.342;2022-07-19T06:47:55;27.10;48.00
34833;DHT22;55941;50.800;4.342;2022-07-19T06:50:21;27.20;47.80
34833;DHT22;55941;50.800;4.342;2022-07-19T06:52:46;27.20;47.40
34833;DHT22;55941;50.800;4.342;2022-07-19T06:55:12;27.30;47.10
34833;DHT22;55941;50.800;4.342;2022-07-19T06:57:39;27.50;46.90
34833;DHT22;55941;50.800;4.342;2022-07-19T07:00:06;27.70;46.30
34833;DHT22;55941;50.800;4.342;2022-07-19T07:02:35;27.70;47.10
34833;DHT22;55941;50.800;4.342;2022-07-19T07:05:01;27.80;46.50
34833;DHT22;55941;50.800;4.342;2022-07-19T07:07:27;27.90;46.60
34833;DHT22;55941;50.800;4.342;2022-07-19T07:09:52;28.00;46.00
34833;DHT22;55941;50.800;4.342;2022-07-19T07:12:18;28.10;45.80
34833;DHT22;55941;50.800;4.342;2022-07-19T07:14:45;28.10;45.90
34833;DHT22;55941;50.800;4.342;2022-07-19T07:17:10;28.20;46.00
34833;DHT22;55941;50.800;4.342;2022-07-19T07:19:36;28.20;46.20
34833;DHT22;55941;50.800;4.342;2022-07-19T07:22:02;28.30;46.00
34833;DHT22;55941;50.800;4.342;2022-07-19T07:24:28;28.50;45.90
34833;DHT22;55941;50.800;4.342;2022-07-19T07:26:54;28.60;45.70
34833;DHT22;55941;50.800;4.342;2022-07-19T07:29:20;28.60;45.70
34833;DHT22;55941;50.800;4.342;2022-07-19T07:31:45;28.70;45.80
34833;DHT22;55941;50.800;4.342;2022-07-19T07:34:11;28.80;45.90
34833;DHT22;55941;50.800;4.342;2022-07-19T07:36:38;28.80;45.80
34833;DHT22;55941;50.800;4.342;2022-07-19T07:39:04;28.80;46.00
34833;DHT22;55941;50.800;4.342;2022-07-19T07:41:29;29.00;45.60
34833;DHT22;55941;50.800;4.342;2022-07-19T07:43:55;29.10;45.80
34833;DHT22;55941;50.800;4.342;2022-07-19T07:46:21;29.40;44.20
34833;DHT22;55941;50.800;4.342;2022-07-19T07:48:47;29.40;44.60
34833;DHT22;55941;50.800;4.342;2022-07-19T07:51:12;29.60;44.20
34833;DHT22;55941;50.800;4.342;2022-07-19T07:53:38;29.60;44.10
34833;DHT22;55941;50.800;4.342;2022-07-19T07:56:04;29.70;44.40
34833;DHT22;55941;50.800;4.342;2022-07-19T07:58:30;29.70;44.40
34833;DHT22;55941;50.800;4.342;2022-07-19T08:00:56;29.80;44.20
34833;DHT22;55941;50.800;4.342;2022-07-19T08:03:21;29.80;44.00
34833;DHT22;55941;50.800;4.342;2022-07-19T08:05:47;29.90;44.10
34833;DHT22;55941;50.800;4.342;2022-07-19T08:08:17;30.10;43.70
34833;DHT22;55941;50.800;4.342;2022-07-19T08:10:44;30.20;43.30
34833;DHT22;55941;50.800;4.342;2022-07-19T08:13:09;30.30;43.40
34833;DHT22;55941;50.800;4.342;2022-07-19T08:15:37;30.30;43.40
34833;DHT22;55941;50.800;4.342;2022-07-19T08:18:03;30.30;42.90
34833;DHT22;55941;50.800;4.342;2022-07-19T08:20:29;30.40;42.60
34833;DHT22;55941;50.800;4.342;2022-07-19T08:22:55;30.40;42.70
34833;DHT22;55941;50.800;4.342;2022-07-19T08:25:20;30.50;42.50
34833;DHT22;55941;50.800;4.342;2022-07-19T08:27:46;30.60;42.00
34833;DHT22;55941;50.800;4.342;2022-07-19T08:30:12;30.90;41.60
34833;DHT22;55941;50.800;4.342;2022-07-19T08:32:40;30.90;41.70
34833;DHT22;55941;50.800;4.342;2022-07-19T08:35:07;30.90;41.90
34833;DHT22;55941;50.800;4.342;2022-07-19T08:37:33;31.00;43.00
34833;DHT22;55941;50.800;4.342;2022-07-19T08:39:59;31.10;42.10
34833;DHT22;55941;50.800;4.342;2022-07-19T08:42:25;31.20;42.10
34833;DHT22;55941;50.800;4.342;2022-07-19T08:44:52;31.30;42.10
34833;DHT22;55941;50.800;4.342;2022-07-19T08:47:19;31.40;41.70
34833;DHT22;55941;50.800;4.342;2022-07-19T08:49:46;31.50;41.20
34833;DHT22;55941;50.800;4.342;2022-07-19T08:52:12;31.60;41.40
34833;DHT22;55941;50.800;4.342;2022-07-19T08:54:39;31.60;41.40
34833;DHT22;55941;50.800;4.342;2022-07-19T08:57:06;31.70;42.10
34833;DHT22;55941;50.800;4.342;2022-07-19T08:59:50;31.90;41.40
34833;DHT22;55941;50.800;4.342;2022-07-19T09:02:17;31.90;41.00
34833;DHT22;55941;50.800;4.342;2022-07-19T09:04:43;32.10;41.20
34833;DHT22;55941;50.800;4.342;2022-07-19T09:07:18;32.10;41.10
34833;DHT22;55941;50.800;4.342;2022-07-19T09:09:44;32.20;41.20
34833;DHT22;55941;50.800;4.342;2022-07-19T09:12:13;32.30;40.90
34833;DHT22;55941;50.800;4.342;2022-07-19T09:14:39;32.50;40.00
34833;DHT22;55941;50.800;4.342;2022-07-19T09:19:41;32.60;39.50
34833;DHT22;55941;50.800;4.342;2022-07-19T09:22:10;32.70;39.70
34833;DHT22;55941;50.800;4.342;2022-07-19T09:24:38;32.80;39.10
34833;DHT22;55941;50.800;4.342;2022-07-19T09:27:06;32.90;39.00
34833;DHT22;55941;50.800;4.342;2022-07-19T09:29:40;32.90;38.80
34833;DHT22;55941;50.800;4.342;2022-07-19T09:32:15;32.90;39.00
34833;DHT22;55941;50.800;4.342;2022-07-19T09:35:01;33.10;38.60
34833;DHT22;55941;50.800;4.342;2022-07-19T09:37:34;33.10;38.50
34833;DHT22;55941;50.800;4.342;2022-07-19T09:40:06;33.10;38.60
34833;DHT22;55941;50.800;4.342;2022-07-19T09:42:52;33.20;38.30
34833;DHT22;55941;50.800;4.342;2022-07-19T09:45:18;33.40;37.60
34833;DHT22;55941;50.800;4.342;2022-07-19T09:47:46;33.50;36.00
34833;DHT22;55941;50.800;4.342;2022-07-19T09:50:17;33.70;35.10
34833;DHT22;55941;50.800;4.342;2022-07-19T09:52:45;33.80;35.50
34833;DHT22;55941;50.800;4.342;2022-07-19T09:55:12;34.00;33.50
34833;DHT22;55941;50.800;4.342;2022-07-19T09:57:49;34.10;32.20
34833;DHT22;55941;50.800;4.342;2022-07-19T10:00:20;34.10;31.60
34833;DHT22;55941;50.800;4.342;2022-07-19T10:02:52;34.30;30.40
34833;DHT22;55941;50.800;4.342;2022-07-19T10:05:18;34.50;31.40
34833;DHT22;55941;50.800;4.342;2022-07-19T10:07:44;34.50;31.20
34833;DHT22;55941;50.800;4.342;2022-07-19T10:10:13;34.70;30.30
34833;DHT22;55941;50.800;4.342;2022-07-19T10:12:41;34.80;29.50
34833;DHT22;55941;50.800;4.342;2022-07-19T10:15:09;34.90;29.80
34833;DHT22;55941;50.800;4.342;2022-07-19T10:20:23;35.00;29.20
34833;DHT22;55941;50.800;4.342;2022-07-19T10:22:50;35.00;29.80
34833;DHT22;55941;50.800;4.342;2022-07-19T10:25:16;35.00;29.70
34833;DHT22;55941;50.800;4.342;2022-07-19T10:27:53;35.10;29.30
34833;DHT22;55941;50.800;4.342;2022-07-19T10:30:25;35.30;29.60
34833;DHT22;55941;50.800;4.342;2022-07-19T10:32:53;35.50;28.90
34833;DHT22;55941;50.800;4.342;2022-07-19T10:38:23;35.80;28.20
34833;DHT22;55941;50.800;4.342;2022-07-19T10:40:50;36.00;27.80
34833;DHT22;55941;50.800;4.342;2022-07-19T10:43:20;36.00;27.80
34833;DHT22;55941;50.800;4.342;2022-07-19T10:46:07;36.00;28.30
34833;DHT22;55941;50.800;4.342;2022-07-19T10:48:47;36.20;27.70
34833;DHT22;55941;50.800;4.342;2022-07-19T10:51:34;36.20;27.90
34833;DHT22;55941;50.800;4.342;2022-07-19T10:54:07;36.20;27.90
34833;DHT22;55941;50.800;4.342;2022-07-19T10:56:41;36.30;27.40
34833;DHT22;55941;50.800;4.342;2022-07-19T10:59:11;36.40;27.30
34833;DHT22;55941;50.800;4.342;2022-07-19T11:01:53;36.50;27.40
34833;DHT22;55941;50.800;4.342;2022-07-19T11:04:26;36.70;27.10
34833;DHT22;55941;50.800;4.342;2022-07-19T11:07:20;36.90;27.20
34833;DHT22;55941;50.800;4.342;2022-07-19T11:09:48;37.20;27.00
34833;DHT22;55941;50.800;4.342;2022-07-19T11:12:26;37.50;27.00
34833;DHT22;55941;50.800;4.342;2022-07-19T11:14:52;37.90;25.90
34833;DHT22;55941;50.800;4.342;2022-07-19T11:17:18;38.20;26.20
34833;DHT22;55941;50.800;4.342;2022-07-19T11:19:58;38.60;25.80
34833;DHT22;55941;50.800;4.342;2022-07-19T11:22:24;38.70;26.20
34833;DHT22;55941;50.800;4.342;2022-07-19T11:24:50;38.90;26.00
34833;DHT22;55941;50.800;4.342;2022-07-19T11:27:16;39.30;26.00
34833;DHT22;55941;50.800;4.342;2022-07-19T11:30:04;39.60;25.30
34833;DHT22;55941;50.800;4.342;2022-07-19T11:32:30;39.80;25.70
34833;DHT22;55941;50.800;4.342;2022-07-19T11:35:01;40.00;24.60
34833;DHT22;55941;50.800;4.342;2022-07-19T11:37:30;40.20;25.30
34833;DHT22;55941;50.800;4.342;2022-07-19T11:39:57;40.50;25.30
34833;DHT22;55941;50.800;4.342;2022-07-19T11:42:36;40.60;24.40
34833;DHT22;55941;50.800;4.342;2022-07-19T11:45:14;40.90;24.30
34833;DHT22;55941;50.800;4.342;2022-07-19T11:47:47;41.10;24.60
34833;DHT22;55941;50.800;4.342;2022-07-19T11:50:15;41.10;23.80
34833;DHT22;55941;50.800;4.342;2022-07-19T11:52:45;41.00;24.30
34833;DHT22;55941;50.800;4.342;2022-07-19T11:55:11;41.20;23.90
34833;DHT22;55941;50.800;4.342;2022-07-19T11:57:37;41.60;23.50
34833;DHT22;55941;50.800;4.342;2022-07-19T12:00:03;41.90;23.50
34833;DHT22;55941;50.800;4.342;2022-07-19T12:02:59;42.10;23.30
34833;DHT22;55941;50.800;4.342;2022-07-19T12:05:29;42.10;23.30
34833;DHT22;55941;50.800;4.342;2022-07-19T12:08:03;42.50;23.30
34833;DHT22;55941;50.800;4.342;2022-07-19T12:10:38;42.70;23.60
34833;DHT22;55941;50.800;4.342;2022-07-19T12:13:05;42.90;23.20
34833;DHT22;55941;50.800;4.342;2022-07-19T12:26:35;44.00;21.70
34833;DHT22;55941;50.800;4.342;2022-07-19T12:29:16;43.70;22.30
34833;DHT22;55941;50.800;4.342;2022-07-19T12:31:42;44.10;21.40
34833;DHT22;55941;50.800;4.342;2022-07-19T12:34:08;44.30;21.70
34833;DHT22;55941;50.800;4.342;2022-07-19T12:36:35;44.60;21.20
34833;DHT22;55941;50.800;4.342;2022-07-19T12:39:01;44.90;20.70
34833;DHT22;55941;50.800;4.342;2022-07-19T12:41:27;45.20;20.80
34833;DHT22;55941;50.800;4.342;2022-07-19T12:43:52;44.90;22.10
34833;DHT22;55941;50.800;4.342;2022-07-19T12:46:18;45.40;20.30
34833;DHT22;55941;50.800;4.342;2022-07-19T12:48:44;45.50;20.50
34833;DHT22;55941;50.800;4.342;2022-07-19T12:51:10;45.70;20.30
34833;DHT22;55941;50.800;4.342;2022-07-19T12:53:35;45.90;20.30
34833;DHT22;55941;50.800;4.342;2022-07-19T12:56:01;46.10;19.60
34833;DHT22;55941;50.800;4.342;2022-07-19T12:58:27;46.40;19.80
34833;DHT22;55941;50.800;4.342;2022-07-19T13:01:11;46.80;19.50
34833;DHT22;55941;50.800;4.342;2022-07-19T13:03:40;47.00;19.80
34833;DHT22;55941;50.800;4.342;2022-07-19T13:06:06;46.80;19.70
34833;DHT22;55941;50.800;4.342;2022-07-19T13:08:32;47.30;19.20
34833;DHT22;55941;50.800;4.342;2022-07-19T13:10:58;47.40;19.20
34833;DHT22;55941;50.800;4.342;2022-07-19T13:13:26;47.30;20.10
34833;DHT22;55941;50.800;4.342;2022-07-19T13:15:52;47.80;18.50
34833;DHT22;55941;50.800;4.342;2022-07-19T13:18:19;47.80;18.20
34833;DHT22;55941;50.800;4.342;2022-07-19T13:20:44;47.60;17.80
34833;DHT22;55941;50.800;4.342;2022-07-19T13:23:11;47.40;18.00
34833;DHT22;55941;50.800;4.342;2022-07-19T13:25:37;47.50;17.90
34833;DHT22;55941;50.800;4.342;2022-07-19T13:28:04;47.20;17.90
34833;DHT22;55941;50.800;4.342;2022-07-19T13:30:30;47.10;19.20
34833;DHT22;55941;50.800;4.342;2022-07-19T13:33:01;47.30;18.40
34833;DHT22;55941;50.800;4.342;2022-07-19T13:35:27;47.40;17.80
34833;DHT22;55941;50.800;4.342;2022-07-19T13:37:53;47.60;17.50
34833;DHT22;55941;50.800;4.342;2022-07-19T13:40:18;47.50;17.60
34833;DHT22;55941;50.800;4.342;2022-07-19T13:42:44;47.90;17.80
34833;DHT22;55941;50.800;4.342;2022-07-19T13:45:10;48.30;17.00
34833;DHT22;55941;50.800;4.342;2022-07-19T13:47:36;48.10;16.40
34833;DHT22;55941;50.800;4.342;2022-07-19T13:50:04;48.10;17.40
34833;DHT22;55941;50.800;4.342;2022-07-19T13:52:32;47.50;16.60
34833;DHT22;55941;50.800;4.342;2022-07-19T13:54:59;47.70;16.90
34833;DHT22;55941;50.800;4.342;2022-07-19T13:57:25;48.00;16.50
34833;DHT22;55941;50.800;4.342;2022-07-19T13:59:51;47.90;16.60
34833;DHT22;55941;50.800;4.342;2022-07-19T14:02:16;48.30;16.30
34833;DHT22;55941;50.800;4.342;2022-07-19T14:04:42;48.40;16.90
34833;DHT22;55941;50.800;4.342;2022-07-19T14:07:08;48.60;16.70
34833;DHT22;55941;50.800;4.342;2022-07-19T14:09:33;48.90;16.50
34833;DHT22;55941;50.800;4.342;2022-07-19T14:12:01;48.90;16.40
34833;DHT22;55941;50.800;4.342;2022-07-19T14:14:27;49.20;16.50
34833;DHT22;55941;50.800;4.342;2022-07-19T14:16:53;49.30;16.10
34833;DHT22;55941;50.800;4.342;2022-07-19T14:19:18;49.10;16.60
34833;DHT22;55941;50.800;4.342;2022-07-19T14:21:44;49.50;15.60
34833;DHT22;55941;50.800;4.342;2022-07-19T14:24:10;49.80;15.90
34833;DHT22;55941;50.800;4.342;2022-07-19T14:26:36;49.80;15.70
34833;DHT22;55941;50.800;4.342;2022-07-19T14:29:02;49.80;15.30
34833;DHT22;55941;50.800;4.342;2022-07-19T14:31:28;49.70;15.40
34833;DHT22;55941;50.800;4.342;2022-07-19T14:33:53;50.00;15.50
34833;DHT22;55941;50.800;4.342;2022-07-19T14:36:19;50.40;15.50
34833;DHT22;55941;50.800;4.342;2022-07-19T14:38:45;50.30;15.80
34833;DHT22;55941;50.800;4.342;2022-07-19T14:41:10;50.40;14.90
34833;DHT22;55941;50.800;4.342;2022-07-19T14:43:36;50.60;14.60
34833;DHT22;55941;50.800;4.342;2022-07-19T14:46:02;50.40;14.40
34833;DHT22;55941;50.800;4.342;2022-07-19T14:48:27;50.20;15.00
34833;DHT22;55941;50.800;4.342;2022-07-19T14:50:53;50.60;15.30
34833;DHT22;55941;50.800;4.342;2022-07-19T14:53:19;50.90;15.00
34833;DHT22;55941;50.800;4.342;2022-07-19T14:55:44;50.90;14.40
34833;DHT22;55941;50.800;4.342;2022-07-19T14:58:10;50.10;13.80
34833;DHT22;55941;50.800;4.342;2022-07-19T15:00:36;49.70;14.80
34833;DHT22;55941;50.800;4.342;2022-07-19T15:03:03;49.80;14.70
34833;DHT22;55941;50.800;4.342;2022-07-19T15:05:28;50.30;15.40
34833;DHT22;55941;50.800;4.342;2022-07-19T15:07:54;50.20;14.10
34833;DHT22;55941;50.800;4.342;2022-07-19T15:10:20;49.70;14.50
34833;DHT22;55941;50.800;4.342;2022-07-19T15:12:45;50.10;14.50
34833;DHT22;55941;50.800;4.342;2022-07-19T15:15:11;50.40;14.50
34833;DHT22;55941;50.800;4.342;2022-07-19T15:17:37;50.40;14.10
34833;DHT22;55941;50.800;4.342;2022-07-19T15:20:03;50.60;14.60
34833;DHT22;55941;50.800;4.342;2022-07-19T15:22:29;51.10;14.00
34833;DHT22;55941;50.800;4.342;2022-07-19T15:24:55;51.10;14.10
34833;DHT22;55941;50.800;4.342;2022-07-19T15:27:20;51.10;13.80
34833;DHT22;55941;50.800;4.342;2022-07-19T15:29:47;51.10;13.80
34833;DHT22;55941;50.800;4.342;2022-07-19T15:32:13;51.20;15.00
34833;DHT22;55941;50.800;4.342;2022-07-19T15:34:40;51.10;14.10
34833;DHT22;55941;50.800;4.342;2022-07-19T15:37:06;50.90;15.10
34833;DHT22;55941;50.800;4.342;2022-07-19T15:39:33;51.20;13.80
34833;DHT22;55941;50.800;4.342;2022-07-19T15:41:58;51.10;13.60
34833;DHT22;55941;50.800;4.342;2022-07-19T15:44:24;51.10;14.00
34833;DHT22;55941;50.800;4.342;2022-07-19T15:46:50;51.30;14.10
34833;DHT22;55941;50.800;4.342;2022-07-19T15:49:16;51.20;14.60
34833;DHT22;55941;50.800;4.342;2022-07-19T15:51:42;51.60;14.30
34833;DHT22;55941;50.800;4.342;2022-07-19T15:54:08;51.60;13.50
34833;DHT22;55941;50.800;4.342;2022-07-19T15:56:34;51.50;14.00
34833;DHT22;55941;50.800;4.342;2022-07-19T15:58:59;51.10;13.70